Time;durP1;ratioP1;P1;durP2;ratioP2;P2;SDS_P1;SDS_P2;PMS_P1;PMS_P2;Temp;Humidity;BMP_temperature;BMP_pressure;BME280_temperature;BME280_humidity;BME280_pressure;Samples;Min_cycle;Max_cycle;Signal;HPM_P1;HPM_P2
2022/07/02 00:01:18;;;;;;;5.13;4.93;;;;;;;-143.83;100.00;62900.06;5030976;28;20104;-62
2022/07/02 00:03:50;;;;;;;5.18;4.97;;;;;;;-143.83;100.00;62900.06;5031726;28;20025;-61
2022/07/02 00:06:17;;;;;;;5.20;5.00;;;;;;;-143.83;100.00;62900.06;5029307;28;20037;-62
2022/07/02 00:08:45;;;;;;;5.10;4.90;;;;;;;-143.83;100.00;62900.06;5033884;28;20036;-63
2022/07/02 00:11:16;;;;;;;5.20;5.00;;;;;;;-143.83;100.00;62900.06;5035482;28;20101;-63
2022/07/02 00:13:42;;;;;;;5.20;5.00;;;;;;;-143.83;100.00;62900.06;5035368;28;20029;-62
2022/07/02 00:16:12;;;;;;;5.13;4.93;;;;;;;-143.83;100.00;62900.06;5027887;28;20044;-62
2022/07/02 00:18:38;;;;;;;5.20;5.00;;;;;;;-143.83;100.00;62900.06;5031850;28;20434;-63
2022/07/02 00:21:04;;;;;;;5.10;4.90;;;;;;;-143.83;100.00;62900.06;5030797;28;20026;-63
2022/07/02 00:23:30;;;;;;;5.30;5.10;;;;;;;-143.83;100.00;62900.06;5031007;28;20047;-63
2022/07/02 00:26:16;;;;;;;5.10;4.90;;;;;;;-143.83;100.00;62900.06;5035620;28;20033;-63
2022/07/02 00:28:45;;;;;;;5.18;4.97;;;;;;;-143.83;100.00;62900.06;5035255;28;20033;-63
2022/07/02 00:31:10;;;;;;;5.10;4.90;;;;;;;-143.83;100.00;62900.06;5035303;28;20052;-63
2022/07/02 00:33:37;;;;;;;5.18;4.97;;;;;;;-143.83;100.00;62900.06;5035102;28;20053;-63
2022/07/02 00:36:03;;;;;;;5.20;5.00;;;;;;;-143.83;100.00;62900.06;5034265;28;20113;-62
2022/07/02 00:38:30;;;;;;;5.20;5.00;;;;;;;-143.83;100.00;62900.06;5021688;28;20397;-62
2022/07/02 00:40:56;;;;;;;5.18;4.97;;;;;;;-143.83;100.00;62900.06;5034302;28;20029;-62
2022/07/02 00:43:22;;;;;;;5.10;4.90;;;;;;;-143.83;100.00;62900.06;5035116;28;20089;-64
2022/07/02 00:45:48;;;;;;;5.10;4.90;;;;;;;-143.83;100.00;62900.06;5034625;28;20543;-62
2022/07/02 00:48:14;;;;;;;5.30;5.10;;;;;;;-143.83;100.00;62900.06;5022487;28;20112;-63
2022/07/02 00:50:40;;;;;;;5.15;4.95;;;;;;;-143.83;100.00;62900.06;5042868;28;20041;-63
2022/07/02 00:53:05;;;;;;;5.25;5.05;;;;;;;-143.83;100.00;62900.06;5033641;28;20375;-63
2022/07/02 00:55:31;;;;;;;5.30;5.10;;;;;;;-143.83;100.00;62900.06;5033706;28;20035;-63
2022/07/02 00:57:57;;;;;;;5.15;4.95;;;;;;;-143.83;100.00;62900.06;5022201;28;20033;-63
2022/07/02 01:00:23;;;;;;;5.18;4.97;;;;;;;-143.83;100.00;62900.06;5033885;28;20025;-63
2022/07/02 01:02:49;;;;;;;5.20;5.00;;;;;;;-143.83;100.00;62900.06;5034456;28;20033;-62
2022/07/02 01:05:17;;;;;;;5.10;4.90;;;;;;;-143.83;100.00;62900.06;5034960;28;20017;-62
2022/07/02 01:07:46;;;;;;;5.00;4.80;;;;;;;-143.83;100.00;62900.06;5034322;28;20022;-62
2022/07/02 01:10:19;;;;;;;5.10;4.90;;;;;;;-143.83;100.00;62900.06;5033550;28;20400;-62
2022/07/02 01:12:47;;;;;;;5.30;5.10;;;;;;;-143.83;100.00;62900.06;5030785;28;20460;-62
2022/07/02 01:15:13;;;;;;;5.15;4.95;;;;;;;-143.83;100.00;62900.06;5034306;28;20539;-62
2022/07/02 01:17:39;;;;;;;4.95;4.75;;;;;;;-143.83;100.00;62900.06;5034044;28;20086;-63
2022/07/02 01:20:05;;;;;;;5.15;4.95;;;;;;;-143.83;100.00;62900.06;5033722;28;20029;-63
2022/07/02 01:22:36;;;;;;;5.20;5.00;;;;;;;-143.83;100.00;62900.06;5034877;28;20119;-62
2022/07/02 01:25:02;;;;;;;5.10;4.90;;;;;;;-143.83;100.00;62900.06;5034334;28;20120;-62
2022/07/02 01:27:28;;;;;;;5.00;4.80;;;;;;;-143.83;100.00;62900.06;5033305;28;20481;-62
2022/07/02 01:29:53;;;;;;;5.20;5.00;;;;;;;-143.83;100.00;62900.06;5030983;28;20032;-62
2022/07/02 01:32:19;;;;;;;5.10;4.90;;;;;;;-143.83;100.00;62900.06;5024421;28;20384;-62
2022/07/02 01:34:51;;;;;;;5.15;4.95;;;;;;;-143.83;100.00;62900.06;5033964;28;20143;-62
2022/07/02 01:37:19;;;;;;;5.00;4.80;;;;;;;-143.83;100.00;62900.06;5033914;28;20041;-63
2022/07/02 01:39:45;;;;;;;4.93;4.72;;;;;;;-143.83;100.00;62900.06;5034956;28;20029;-63
2022/07/02 01:42:12;;;;;;;5.20;5.00;;;;;;;-143.83;100.00;62900.06;5028554;28;20060;-63
2022/07/02 01:44:38;;;;;;;5.20;5.00;;;;;;;-143.83;100.00;62900.06;5033369;28;20457;-64
2022/07/02 01:47:11;;;;;;;4.90;4.70;;;;;;;-143.83;100.00;62900.06;5029770;28;20472;-63
2022/07/02 01:49:38;;;;;;;5.13;4.93;;;;;;;-143.83;100.00;62900.06;5025647;28;20029;-62
2022/07/02 01:52:05;;;;;;;5.10;4.90;;;;;;;-143.83;100.00;62900.06;5032319;28;20045;-62
2022/07/02 01:54:31;;;;;;;4.90;4.70;;;;;;;-143.83;100.00;62900.06;5033772;28;20422;-62
2022/07/02 01:56:57;;;;;;;5.07;4.88;;;;;;;-143.83;100.00;62900.06;5034118;28;20068;-62
2022/07/02 01:59:23;;;;;;;5.10;4.90;;;;;;;-143.83;100.00;62900.06;5030294;28;20389;-63
2022/07/02 02:01:48;;;;;;;5.10;4.90;;;;;;;-143.83;100.00;62900.06;5023753;28;20029;-62
2022/07/02 02:04:14;;;;;;;5.10;4.90;;;;;;;-143.83;100.00;62900.06;5032590;28;20452;-63
2022/07/02 02:06:40;;;;;;;5.00;4.80;;;;;;;-143.83;100.00;62900.06;5033298;28;20116;-63
2022/07/02 02:09:06;;;;;;;5.20;5.00;;;;;;;-143.83;100.00;62900.06;5033171;28;20038;-62
2022/07/02 02:11:32;;;;;;;5.10;4.90;;;;;;;-143.83;100.00;62900.06;5033367;28;20530;-62
2022/07/02 02:13:58;;;;;;;5.10;4.90;;;;;;;-143.83;100.00;62900.06;5033629;28;20121;-62
2022/07/02 02:16:28;;;;;;;5.20;5.00;;;;;;;-143.83;100.00;62900.06;5033224;28;20481;-62
2022/07/02 02:18:55;;;;;;;5.18;4.97;;;;;;;-143.83;100.00;62900.06;5031127;28;20037;-62
2022/07/02 02:21:22;;;;;;;5.10;4.90;;;;;;;-143.83;100.00;62900.06;5032338;28;20025;-63
2022/07/02 02:23:47;;;;;;;5.18;4.97;;;;;;;-143.83;100.00;62900.06;5032824;28;20029;-62
2022/07/02 02:26:13;;;;;;;5.20;5.00;;;;;;;-143.83;100.00;62900.06;5033251;28;20033;-62
2022/07/02 02:28:38;;;;;;;5.28;5.07;;;;;;;-143.83;100.00;62900.06;5032312;28;20032;-62
2022/07/02 02:31:04;;;;;;;5.18;4.97;;;;;;;-143.83;100.00;62900.06;5039215;28;20059;-63
2022/07/02 02:33:30;;;;;;;5.07;4.88;;;;;;;-143.83;100.00;62900.06;5033354;28;20052;-62
2022/07/02 02:35:55;;;;;;;5.20;5.00;;;;;;;-143.83;100.00;62900.06;5033351;28;20477;-63
2022/07/02 02:38:21;;;;;;;5.07;4.88;;;;;;;-143.83;100.00;62900.06;5027216;28;20037;-63
2022/07/02 02:40:46;;;;;;;5.07;4.88;;;;;;;-143.83;100.00;62900.06;5031623;28;20370;-63
2022/07/02 02:43:12;;;;;;;5.10;4.90;;;;;;;-143.83;100.00;62900.06;5032694;28;20021;-63
2022/07/02 02:45:37;;;;;;;5.28;5.07;;;;;;;-143.83;100.00;62900.06;5032716;28;20021;-63
2022/07/02 02:48:03;;;;;;;5.20;5.00;;;;;;;-143.83;100.00;62900.06;5030211;28;20029;-63
2022/07/02 02:50:28;;;;;;;5.07;4.88;;;;;;;-143.83;100.00;62900.06;5032740;28;20456;-63
2022/07/02 02:52:54;;;;;;;5.20;5.00;;;;;;;-143.83;100.00;62900.06;5031669;28;20496;-63
2022/07/02 02:55:20;;;;;;;5.25;5.05;;;;;;;-143.83;100.00;62900.06;5030545;28;20036;-63
2022/07/02 02:57:46;;;;;;;5.28;5.07;;;;;;;-143.83;100.00;62900.06;5032735;28;20031;-62
2022/07/02 03:00:11;;;;;;;5.38;5.18;;;;;;;-143.83;100.00;62900.06;5032479;28;20108;-63
2022/07/02 03:02:37;;;;;;;5.45;5.25;;;;;;;-143.83;100.00;62900.06;5032566;28;20429;-63
2022/07/02 03:05:03;;;;;;;5.45;5.25;;;;;;;-143.83;100.00;62900.06;5034744;28;20120;-63
2022/07/02 03:07:28;;;;;;;5.32;5.13;;;;;;;-143.83;100.00;62900.06;5032574;28;20032;-63
2022/07/02 03:09:53;;;;;;;5.50;5.30;;;;;;;-143.83;100.00;62900.06;5032238;28;20104;-63
2022/07/02 03:12:19;;;;;;;5.50;5.30;;;;;;;-143.83;100.00;62900.06;5027779;28;20029;-63
2022/07/02 03:14:45;;;;;;;5.50;5.30;;;;;;;-143.83;100.00;62900.06;5032328;28;20021;-63
2022/07/02 03:17:10;;;;;;;5.40;5.20;;;;;;;-143.83;100.00;62900.06;5031725;28;20033;-64
2022/07/02 03:19:36;;;;;;;5.40;5.20;;;;;;;-143.83;100.00;62900.06;5019604;28;20035;-63
2022/07/02 03:22:01;;;;;;;5.57;5.38;;;;;;;-143.83;100.00;62900.06;5039253;28;20057;-63
2022/07/02 03:24:27;;;;;;;5.65;5.45;;;;;;;-143.83;100.00;62900.06;5031973;28;20101;-63
2022/07/02 03:26:52;;;;;;;5.45;5.25;;;;;;;-143.83;100.00;62900.06;5031800;28;20021;-62
2022/07/02 03:29:18;;;;;;;5.60;5.40;;;;;;;-143.83;100.00;62900.06;5030405;28;20033;-62
2022/07/02 03:31:43;;;;;;;5.60;5.40;;;;;;;-143.83;100.00;62900.06;5031826;28;20025;-63
2022/07/02 03:34:09;;;;;;;5.60;5.40;;;;;;;-143.83;100.00;62900.06;5024510;28;20075;-62
2022/07/02 03:36:34;;;;;;;5.63;5.43;;;;;;;-143.83;100.00;62900.06;5030870;28;20389;-63
2022/07/02 03:39:00;;;;;;;5.57;5.38;;;;;;;-143.83;100.00;62900.06;5038600;28;20089;-64
2022/07/02 03:41:25;;;;;;;5.65;5.45;;;;;;;-143.83;100.00;62900.06;5032635;28;20036;-62
2022/07/02 03:43:51;;;;;;;5.88;5.68;;;;;;;-143.83;100.00;62900.06;5025036;28;20033;-63
2022/07/02 03:46:17;;;;;;;5.90;5.70;;;;;;;-143.83;100.00;62900.06;5024276;28;20037;-63
2022/07/02 03:48:43;;;;;;;5.90;5.70;;;;;;;-143.83;100.00;62900.06;5016678;28;20164;-63
2022/07/02 03:51:09;;;;;;;5.50;5.30;;;;;;;-143.83;100.00;62900.06;5027136;28;20412;-62
2022/07/02 03:53:35;;;;;;;5.80;5.60;;;;;;;-143.83;100.00;62900.06;5032083;28;20021;-63
2022/07/02 03:56:01;;;;;;;5.90;5.70;;;;;;;-143.83;100.00;62900.06;5032094;28;20072;-63
2022/07/02 03:58:27;;;;;;;5.80;5.60;;;;;;;-143.83;100.00;62900.06;5031992;28;20063;-63
2022/07/02 04:00:52;;;;;;;5.80;5.60;;;;;;;-143.83;100.00;62900.06;5031168;28;20052;-63
2022/07/02 04:03:18;;;;;;;6.07;5.88;;;;;;;-143.83;100.00;62900.06;5029303;28;20052;-63
2022/07/02 04:05:43;;;;;;;5.85;5.65;;;;;;;-143.83;100.00;62900.06;5031681;28;20029;-63
2022/07/02 04:08:09;;;;;;;6.00;5.80;;;;;;;-143.83;100.00;62900.06;5031460;28;20036;-63
2022/07/02 04:10:34;;;;;;;5.80;5.60;;;;;;;-143.83;100.00;62900.06;5031770;28;20113;-63
2022/07/02 04:13:01;;;;;;;5.65;5.45;;;;;;;-143.83;100.00;62900.06;5031809;28;20032;-62
2022/07/02 04:15:27;;;;;;;5.80;5.60;;;;;;;-143.83;100.00;62900.06;5030496;28;20481;-63
2022/07/02 04:17:52;;;;;;;5.80;5.60;;;;;;;-143.83;100.00;62900.06;5031432;28;20036;-63
2022/07/02 04:20:18;;;;;;;5.78;5.57;;;;;;;-143.83;100.00;62900.06;5025049;28;20041;-64
2022/07/02 04:22:43;;;;;;;5.90;5.70;;;;;;;-143.83;100.00;62900.06;5031404;28;20385;-63
2022/07/02 04:25:09;;;;;;;5.90;5.70;;;;;;;-143.83;100.00;62900.06;5031268;28;20100;-63
2022/07/02 04:27:34;;;;;;;5.90;5.70;;;;;;;-143.83;100.00;62900.06;5031515;28;20017;-64
2022/07/02 04:30:00;;;;;;;6.00;5.80;;;;;;;-143.83;100.00;62900.06;5030844;28;20433;-64
2022/07/02 04:32:25;;;;;;;5.93;5.72;;;;;;;-143.83;100.00;62900.06;5031317;28;20079;-64
2022/07/02 04:34:51;;;;;;;6.20;6.00;;;;;;;-143.83;100.00;62900.06;5030097;28;20021;-63
2022/07/02 04:37:16;;;;;;;6.00;5.80;;;;;;;-143.83;100.00;62900.06;5025125;28;20156;-62
2022/07/02 04:39:43;;;;;;;6.05;5.85;;;;;;;-143.83;100.00;62900.06;5024579;28;20025;-64
2022/07/02 04:42:08;;;;;;;5.80;5.60;;;;;;;-143.83;100.00;62900.06;5024674;28;20030;-63
2022/07/02 04:44:34;;;;;;;6.10;5.90;;;;;;;-143.83;100.00;62900.06;5025097;28;20025;-62
2022/07/02 04:46:59;;;;;;;6.05;5.85;;;;;;;-143.83;100.00;62900.06;5019499;28;20567;-63
2022/07/02 04:49:25;;;;;;;6.15;5.95;;;;;;;-143.83;100.00;62900.06;5030243;28;20116;-66
2022/07/02 04:51:51;;;;;;;6.28;6.03;;;;;;;-143.83;100.00;62900.06;5028187;28;20053;-63
2022/07/02 04:54:16;;;;;;;6.07;5.88;;;;;;;-143.83;100.00;62900.06;5020884;28;20025;-63
2022/07/02 04:56:42;;;;;;;6.15;5.95;;;;;;;-143.83;100.00;62900.06;5034560;28;20492;-63
2022/07/02 04:59:07;;;;;;;6.40;6.10;;;;;;;-143.83;100.00;62900.06;5033727;28;20040;-63
2022/07/02 05:01:33;;;;;;;6.05;5.85;;;;;;;-143.83;100.00;62900.06;5034454;28;20029;-63
2022/07/02 05:03:58;;;;;;;6.50;6.20;;;;;;;-143.83;100.00;62900.06;5036730;28;20053;-62
2022/07/02 05:06:24;;;;;;;6.32;6.10;;;;;;;-143.83;100.00;62900.06;5034186;28;20391;-63
2022/07/02 05:08:50;;;;;;;6.03;5.82;;;;;;;-143.83;100.00;62900.06;5033634;28;20057;-62
2022/07/02 05:11:18;;;;;;;6.50;6.20;;;;;;;-143.83;100.00;62900.06;5032941;28;20080;-63
2022/07/02 05:13:43;;;;;;;6.40;6.10;;;;;;;-143.83;100.00;62900.06;5025342;28;20539;-63
2022/07/02 05:16:09;;;;;;;6.43;6.13;;;;;;;-143.83;100.00;62900.06;5031720;28;20036;-63
2022/07/02 05:18:35;;;;;;;6.20;6.00;;;;;;;-143.83;100.00;62900.06;5034278;28;20187;-63
2022/07/02 05:21:00;;;;;;;6.55;6.25;;;;;;;-143.83;100.00;62900.06;5034933;28;20028;-64
2022/07/02 05:23:26;;;;;;;6.40;6.10;;;;;;;-143.83;100.00;62900.06;5033178;28;20021;-64
2022/07/02 05:25:51;;;;;;;5.97;5.78;;;;;;;-143.83;100.00;62900.06;5034136;28;20029;-64
2022/07/02 05:28:17;;;;;;;6.13;5.93;;;;;;;-143.83;100.00;62900.06;5027342;28;20030;-63
2022/07/02 05:30:42;;;;;;;6.00;5.80;;;;;;;-143.83;100.00;62900.06;5026721;28;20033;-62
2022/07/02 05:33:08;;;;;;;6.22;6.00;;;;;;;-143.83;100.00;62900.06;5033632;28;20207;-62
2022/07/02 05:35:33;;;;;;;6.38;6.10;;;;;;;-143.83;100.00;62900.06;5025546;28;20029;-63
2022/07/02 05:37:59;;;;;;;6.15;5.95;;;;;;;-143.83;100.00;62900.06;5030393;28;20401;-63
2022/07/02 05:40:24;;;;;;;6.20;6.00;;;;;;;-143.83;100.00;62900.06;5033647;28;20104;-62
2022/07/02 05:42:50;;;;;;;6.43;6.13;;;;;;;-143.83;100.00;62900.06;5033834;28;20496;-63
2022/07/02 05:45:16;;;;;;;6.55;6.25;;;;;;;-143.83;100.00;62900.06;5032921;28;20040;-64
2022/07/02 05:47:42;;;;;;;6.60;6.30;;;;;;;-143.83;100.00;62900.06;5028449;28;20034;-63
2022/07/02 05:50:08;;;;;;;6.50;6.20;;;;;;;-143.83;100.00;62900.06;5032327;28;20035;-63
2022/07/02 05:52:33;;;;;;;6.40;6.10;;;;;;;-143.83;100.00;62900.06;5032654;28;20025;-63
2022/07/02 05:54:59;;;;;;;6.38;6.07;;;;;;;-143.83;100.00;62900.06;5033560;28;20033;-63
2022/07/02 05:57:24;;;;;;;6.18;5.97;;;;;;;-143.83;100.00;62900.06;5033426;28;20452;-64
2022/07/02 05:59:50;;;;;;;6.75;6.45;;;;;;;-143.83;100.00;62900.06;5033459;28;20128;-63
2022/07/02 06:02:15;;;;;;;6.55;6.25;;;;;;;-143.83;100.00;62900.06;5032857;28;20033;-64
2022/07/02 06:04:41;;;;;;;6.47;6.18;;;;;;;-143.83;100.00;62900.06;5031886;28;20107;-64
2022/07/02 06:09:51;;;;;;;6.43;6.13;;;;;;;-143.83;100.00;62900.06;5033479;28;20064;-64
2022/07/02 06:12:17;;;;;;;6.57;6.28;;;;;;;-143.83;100.00;62900.06;5032570;28;20061;-63
2022/07/02 06:14:43;;;;;;;6.80;6.50;;;;;;;-143.83;100.00;62900.06;5032901;28;20492;-64
2022/07/02 06:17:10;;;;;;;6.40;6.10;;;;;;;-143.83;100.00;62900.06;5033104;28;20029;-62
2022/07/02 06:19:36;;;;;;;6.20;6.00;;;;;;;-143.83;100.00;62900.06;5031660;28;20392;-63
2022/07/02 06:22:01;;;;;;;6.45;6.15;;;;;;;-143.83;100.00;62900.06;5027555;28;20076;-62
2022/07/02 06:24:26;;;;;;;6.57;6.28;;;;;;;-143.83;100.00;62900.06;5025311;28;20032;-63
2022/07/02 06:26:52;;;;;;;6.18;5.97;;;;;;;-143.83;100.00;62900.06;5019804;28;20029;-63
2022/07/02 06:29:17;;;;;;;6.53;6.22;;;;;;;-143.83;100.00;62900.06;5023545;28;20101;-64
2022/07/02 06:31:43;;;;;;;6.45;6.15;;;;;;;-143.83;100.00;62900.06;5026535;28;20084;-63
2022/07/02 06:34:08;;;;;;;6.50;6.20;;;;;;;-143.83;100.00;62900.06;5033118;28;20038;-63
2022/07/02 06:36:34;;;;;;;6.55;6.25;;;;;;;-143.83;100.00;62900.06;5032315;28;20029;-63
2022/07/02 06:38:59;;;;;;;6.43;6.13;;;;;;;-143.83;100.00;62900.06;5032298;28;20037;-65
2022/07/02 06:44:09;;;;;;;6.65;6.35;;;;;;;-143.83;100.00;62900.06;5020246;28;20052;-63
2022/07/02 06:46:34;;;;;;;6.95;6.65;;;;;;;-143.83;100.00;62900.06;5032376;28;20509;-63
2022/07/02 06:49:00;;;;;;;6.65;6.35;;;;;;;-143.83;100.00;62900.06;5033094;28;20101;-63
2022/07/02 06:51:27;;;;;;;6.88;6.57;;;;;;;-143.83;100.00;62900.06;5030811;28;20463;-63
2022/07/02 06:53:53;;;;;;;6.88;6.57;;;;;;;-143.83;100.00;62900.06;5021689;28;20041;-63
2022/07/02 06:56:20;;;;;;;6.68;6.38;;;;;;;-143.83;100.00;62900.06;5030949;28;20099;-62
2022/07/02 06:58:45;;;;;;;6.97;6.68;;;;;;;-143.83;100.00;62900.06;5032790;28;20018;-63
2022/07/02 07:01:11;;;;;;;6.65;6.35;;;;;;;-143.83;100.00;62900.06;5032274;28;20022;-63
2022/07/02 07:03:36;;;;;;;6.70;6.40;;;;;;;-143.83;100.00;62900.06;5031811;28;20029;-65
2022/07/02 07:06:02;;;;;;;6.43;6.13;;;;;;;-143.83;100.00;62900.06;5032025;28;20116;-64
2022/07/02 07:08:27;;;;;;;6.50;6.20;;;;;;;-143.83;100.00;62900.06;5031273;28;20397;-63
2022/07/02 07:10:53;;;;;;;6.80;6.50;;;;;;;-143.83;100.00;62900.06;5031306;28;20025;-62
2022/07/02 07:13:18;;;;;;;6.68;6.38;;;;;;;-143.83;100.00;62900.06;5031756;28;20493;-63
2022/07/02 07:15:44;;;;;;;6.65;6.35;;;;;;;-143.83;100.00;62900.06;5031941;28;20041;-63
2022/07/02 07:18:09;;;;;;;6.50;6.20;;;;;;;-143.83;100.00;62900.06;5027578;28;20018;-62
2022/07/02 07:20:36;;;;;;;6.50;6.20;;;;;;;-143.83;100.00;62900.06;5024181;28;20021;-63
2022/07/02 07:23:01;;;;;;;6.82;6.53;;;;;;;-143.83;100.00;62900.06;5030196;28;20603;-63
2022/07/02 07:25:27;;;;;;;6.60;6.30;;;;;;;-143.83;100.00;62900.06;5031890;28;20029;-63
2022/07/02 07:27:53;;;;;;;6.60;6.30;;;;;;;-143.83;100.00;62900.06;5021170;28;20021;-63
2022/07/02 07:30:18;;;;;;;6.50;6.20;;;;;;;-143.83;100.00;62900.06;5026141;28;20028;-63
2022/07/02 07:32:44;;;;;;;6.53;6.22;;;;;;;-143.83;100.00;62900.06;5031891;28;20029;-64
2022/07/02 07:35:10;;;;;;;6.68;6.38;;;;;;;-143.83;100.00;62900.06;5031903;28;20079;-63
2022/07/02 07:37:36;;;;;;;6.70;6.40;;;;;;;-143.83;100.00;62900.06;5032259;28;20540;-64
2022/07/02 07:40:07;;;;;;;6.53;6.22;;;;;;;-143.83;100.00;62900.06;5030925;28;20045;-63
2022/07/02 07:42:33;;;;;;;6.50;6.20;;;;;;;-143.83;100.00;62900.06;5030771;28;20022;-63
2022/07/02 07:44:59;;;;;;;6.40;6.10;;;;;;;-143.83;100.00;62900.06;5027183;28;20056;-62
2022/07/02 07:47:24;;;;;;;6.00;5.80;;;;;;;-143.83;100.00;62900.06;5031225;28;20414;-64
2022/07/02 07:49:50;;;;;;;6.07;5.88;;;;;;;-143.83;100.00;62900.06;5030376;28;20033;-62
2022/07/02 07:52:15;;;;;;;6.20;6.00;;;;;;;-143.83;100.00;62900.06;5031335;28;20038;-64
2022/07/02 07:54:41;;;;;;;5.90;5.70;;;;;;;-143.83;100.00;62900.06;5031419;28;20025;-63
2022/07/02 07:57:07;;;;;;;6.10;5.90;;;;;;;-143.83;100.00;62900.06;5029737;28;20086;-63
2022/07/02 07:59:32;;;;;;;5.70;5.50;;;;;;;-143.83;100.00;62900.06;5031582;28;20032;-63
2022/07/02 08:01:58;;;;;;;5.90;5.70;;;;;;;-143.83;100.00;62900.06;5025585;28;20051;-64
2022/07/02 08:04:24;;;;;;;5.70;5.50;;;;;;;-143.83;100.00;62900.06;5025505;28;20072;-64
2022/07/02 08:06:49;;;;;;;5.90;5.70;;;;;;;-143.83;100.00;62900.06;5030953;28;20449;-63
2022/07/02 08:09:16;;;;;;;5.78;5.57;;;;;;;-143.83;100.00;62900.06;5029908;28;20025;-63
2022/07/02 08:11:41;;;;;;;6.00;5.80;;;;;;;-143.83;100.00;62900.06;5031713;28;20034;-62
2022/07/02 08:14:07;;;;;;;6.00;5.80;;;;;;;-143.83;100.00;62900.06;5029703;28;20087;-63
2022/07/02 08:16:32;;;;;;;6.07;5.88;;;;;;;-143.83;100.00;62900.06;5020164;28;20116;-62
2022/07/02 08:18:58;;;;;;;5.90;5.70;;;;;;;-143.83;100.00;62900.06;5030727;28;20083;-62
2022/07/02 08:21:24;;;;;;;6.00;5.80;;;;;;;-143.83;100.00;62900.06;5026822;28;20033;-63
2022/07/02 08:23:49;;;;;;;5.82;5.63;;;;;;;-143.83;100.00;62900.06;5027163;28;20025;-62
2022/07/02 08:26:15;;;;;;;5.88;5.68;;;;;;;-143.83;100.00;62900.06;5028420;28;20489;-63
2022/07/02 08:28:40;;;;;;;5.75;5.55;;;;;;;-143.83;100.00;62900.06;5028347;28;20156;-62
2022/07/02 08:31:06;;;;;;;5.55;5.35;;;;;;;-143.83;100.00;62900.06;5018739;28;20021;-63
2022/07/02 08:33:32;;;;;;;5.60;5.40;;;;;;;-143.83;100.00;62900.06;5028175;28;20022;-64
2022/07/02 08:35:57;;;;;;;5.60;5.40;;;;;;;-143.83;100.00;62900.06;5026483;28;20500;-63
2022/07/02 08:38:23;;;;;;;5.53;5.32;;;;;;;-143.83;100.00;62900.06;5033601;28;20064;-62
2022/07/02 08:40:49;;;;;;;5.60;5.40;;;;;;;-143.83;100.00;62900.06;5034979;28;20026;-62
2022/07/02 08:43:16;;;;;;;5.90;5.70;;;;;;;-143.83;100.00;62900.06;5034440;28;20022;-63
2022/07/02 08:45:43;;;;;;;5.68;5.47;;;;;;;-143.83;100.00;62900.06;5035152;28;20115;-63
2022/07/02 08:48:10;;;;;;;5.60;5.40;;;;;;;-143.83;100.00;62900.06;5034611;28;20358;-63
2022/07/02 08:50:36;;;;;;;5.50;5.30;;;;;;;-143.83;100.00;62900.06;5033321;28;20057;-63
2022/07/02 08:53:06;;;;;;;5.68;5.47;;;;;;;-143.83;100.00;62900.06;5032699;28;20029;-64
2022/07/02 08:55:34;;;;;;;5.63;5.43;;;;;;;-143.83;100.00;62900.06;5034465;28;20021;-63
2022/07/02 08:58:01;;;;;;;5.50;5.30;;;;;;;-143.83;100.00;62900.06;5032064;28;20119;-63
2022/07/02 09:00:27;;;;;;;5.53;5.32;;;;;;;-143.83;100.00;62900.06;5024661;28;20592;-63
2022/07/02 09:02:54;;;;;;;5.30;5.10;;;;;;;-143.83;100.00;62900.06;5038784;28;20020;-63
2022/07/02 09:05:25;;;;;;;5.47;5.28;;;;;;;-143.83;100.00;62900.06;5041392;28;20106;-62
2022/07/02 09:07:50;;;;;;;5.60;5.40;;;;;;;-143.83;100.00;62900.06;5033187;28;20029;-63
2022/07/02 09:10:17;;;;;;;5.57;5.38;;;;;;;-143.83;100.00;62900.06;5031275;28;20352;-63
2022/07/02 09:12:45;;;;;;;5.50;5.30;;;;;;;-143.83;100.00;62900.06;5021129;28;20503;-63
2022/07/02 09:15:11;;;;;;;5.60;5.40;;;;;;;-143.83;100.00;62900.06;5027121;28;20539;-64
2022/07/02 09:17:40;;;;;;;5.60;5.40;;;;;;;-143.83;100.00;62900.06;5043017;28;20129;-65
2022/07/02 09:20:08;;;;;;;5.78;5.57;;;;;;;-143.83;100.00;62900.06;5043003;28;20024;-64
2022/07/02 09:22:36;;;;;;;5.60;5.40;;;;;;;-143.83;100.00;62900.06;5028732;28;20024;-63
2022/07/02 09:25:14;;;;;;;5.60;5.40;;;;;;;-143.83;100.00;62900.06;5022990;28;20025;-63
2022/07/02 09:27:40;;;;;;;5.60;5.40;;;;;;;-143.83;100.00;62900.06;5030113;28;20029;-64
2022/07/02 09:30:08;;;;;;;5.63;5.43;;;;;;;-143.83;100.00;62900.06;5030562;28;20032;-63
2022/07/02 09:32:43;;;;;;;5.70;5.50;;;;;;;-143.83;100.00;62900.06;5027237;28;20036;-63
2022/07/02 09:35:19;;;;;;;5.60;5.40;;;;;;;-143.83;100.00;62900.06;5035183;28;20033;-63
2022/07/02 09:37:47;;;;;;;5.57;5.38;;;;;;;-143.83;100.00;62900.06;5033638;28;20021;-64
2022/07/02 09:40:13;;;;;;;5.50;5.30;;;;;;;-143.83;100.00;62900.06;5043360;28;20041;-62
2022/07/02 09:42:39;;;;;;;5.70;5.50;;;;;;;-143.83;100.00;62900.06;5035832;28;20029;-64
2022/07/02 09:45:06;;;;;;;5.68;5.47;;;;;;;-143.83;100.00;62900.06;5035165;28;20022;-63
2022/07/02 09:47:48;;;;;;;5.57;5.38;;;;;;;-143.83;100.00;62900.06;5044814;28;20025;-62
2022/07/02 09:50:16;;;;;;;5.60;5.40;;;;;;;-143.83;100.00;62900.06;5046363;28;20028;-63
2022/07/02 09:52:55;;;;;;;5.60;5.40;;;;;;;-143.83;100.00;62900.06;5038278;28;20033;-64
2022/07/02 09:55:23;;;;;;;5.70;5.50;;;;;;;-143.83;100.00;62900.06;5034176;28;20401;-64
2022/07/02 09:57:59;;;;;;;5.65;5.45;;;;;;;-143.83;100.00;62900.06;5044502;28;20045;-63
2022/07/02 10:00:27;;;;;;;5.70;5.50;;;;;;;-143.83;100.00;62900.06;5034809;28;20149;-63
2022/07/02 10:02:55;;;;;;;5.50;5.30;;;;;;;-143.83;100.00;62900.06;5023362;28;20117;-63
2022/07/02 10:05:27;;;;;;;5.50;5.30;;;;;;;-143.83;100.00;62900.06;5031713;28;20075;-64
2022/07/02 10:07:54;;;;;;;5.60;5.40;;;;;;;-143.83;100.00;62900.06;5028369;28;20091;-62
2022/07/02 10:13:02;;;;;;;5.50;5.30;;;;;;;-143.83;100.00;62900.06;5027783;28;20013;-63
2022/07/02 10:15:32;;;;;;;5.55;5.35;;;;;;;-143.83;100.00;62900.06;5032192;28;20022;-63
2022/07/02 10:18:00;;;;;;;5.60;5.40;;;;;;;-143.83;100.00;62900.06;5027453;28;20112;-63
2022/07/02 10:20:28;;;;;;;5.40;5.20;;;;;;;-143.83;100.00;62900.06;5027917;28;20018;-63
2022/07/02 10:22:56;;;;;;;5.53;5.32;;;;;;;-143.83;100.00;62900.06;5025250;28;20507;-63
2022/07/02 10:25:21;;;;;;;5.40;5.20;;;;;;;-143.83;100.00;62900.06;5044518;28;20667;-63
2022/07/02 10:27:47;;;;;;;5.40;5.20;;;;;;;-143.83;100.00;62900.06;5035675;28;20029;-63
2022/07/02 10:30:21;;;;;;;5.60;5.40;;;;;;;-143.83;100.00;62900.06;5025696;28;20055;-63
2022/07/02 10:33:07;;;;;;;5.57;5.38;;;;;;;-143.83;100.00;62900.06;5040349;28;20334;-62
2022/07/02 10:35:34;;;;;;;5.40;5.20;;;;;;;-143.83;100.00;62900.06;5028851;28;20037;-63
2022/07/02 10:38:00;;;;;;;5.40;5.20;;;;;;;-143.83;100.00;62900.06;5038494;28;20392;-64
2022/07/02 10:40:27;;;;;;;5.60;5.40;;;;;;;-143.83;100.00;62900.06;5042066;28;20033;-63
2022/07/02 10:42:57;;;;;;;5.60;5.40;;;;;;;-143.83;100.00;62900.06;5046028;28;20035;-63
2022/07/02 10:45:23;;;;;;;5.40;5.20;;;;;;;-143.83;100.00;62900.06;5027067;28;20060;-64
2022/07/02 10:48:01;;;;;;;5.38;5.18;;;;;;;-143.83;100.00;62900.06;5044633;28;20035;-63
2022/07/02 10:50:39;;;;;;;5.43;5.22;;;;;;;-143.83;100.00;62900.06;5045886;28;20029;-63
2022/07/02 10:53:08;;;;;;;5.50;5.30;;;;;;;-143.83;100.00;62900.06;5042204;28;20385;-63
2022/07/02 10:55:34;;;;;;;5.47;5.28;;;;;;;-143.83;100.00;62900.06;5032276;28;20022;-62
2022/07/02 10:58:02;;;;;;;5.50;5.30;;;;;;;-143.83;100.00;62900.06;5039408;28;20037;-63
2022/07/02 11:00:30;;;;;;;5.40;5.20;;;;;;;-143.83;100.00;62900.06;5027401;28;20105;-62
2022/07/02 11:02:57;;;;;;;5.40;5.20;;;;;;;-143.83;100.00;62900.06;5040197;28;20033;-62
2022/07/02 11:05:23;;;;;;;5.40;5.20;;;;;;;-143.83;100.00;62900.06;5040176;28;20018;-62
2022/07/02 11:07:48;;;;;;;5.40;5.20;;;;;;;-143.83;100.00;62900.06;5032629;28;20271;-62
2022/07/02 11:10:14;;;;;;;5.50;5.30;;;;;;;-143.83;100.00;62900.06;5028105;28;20443;-62
2022/07/02 11:12:50;;;;;;;5.60;5.40;;;;;;;-143.83;100.00;62900.06;5036344;28;20566;-63
2022/07/02 11:15:25;;;;;;;5.30;5.10;;;;;;;-143.83;100.00;62900.06;5027817;28;20036;-63